Time;durP1;ratioP1;P1;durP2;ratioP2;P2;SDS_P1;SDS_P2;PMS_P1;PMS_P2;Temp;Humidity;BMP_temperature;BMP_pressure;BME280_temperature;BME280_humidity;BME280_pressure;Samples;Min_cycle;Max_cycle;Signal;HPM_P1;HPM_P2
2021/01/22 00:08:28;;;;;;;33.70;3.85;;;;;;;;;;6160369;22;21483;-70
2021/01/22 00:21:24;;;;;;;16.90;2.30;;;10.80;71.30;;;;;;6016928;22;21695;-69
2021/01/22 00:23:50;;;;;;;4.57;1.70;;;10.80;71.60;;;;;;5428039;22;20239;-69
2021/01/22 00:26:16;;;;;;;8.40;1.30;;;;;;;;;;5962514;22;20749;-69
2021/01/22 00:33:54;;;;;;;5.93;2.03;;;;;;;;;;5995755;22;20519;-69
2021/01/22 00:49:56;;;;;;;19.43;2.40;;;;;;;;;;5778270;23;20660;-68
2021/01/22 00:57:34;;;;;;;7.97;1.27;;;;;;;;;;5873517;23;20223;-69
2021/01/22 03:22:01;;;;;;;22.70;2.37;;;10.30;76.10;;;;;;5539850;23;20247;-69
2021/01/22 03:32:15;;;;;;;14.53;2.03;;;;;;;;;;5748760;23;20220;-70
2021/01/22 03:34:41;;;;;;;17.50;2.33;;;;;;;;;;5658528;23;20275;-70
2021/01/22 03:37:07;;;;;;;19.13;2.10;;;10.30;74.60;;;;;;5963111;23;20179;-70
2021/01/22 03:39:35;;;;;;;4.70;1.10;;;10.30;74.60;;;;;;5806803;23;20264;-70
2021/01/22 04:13:11;;;;;;;4.23;1.00;;;10.60;71.60;;;;;;5885688;23;20279;-71
2021/01/22 04:25:59;;;;;;;6.03;1.43;;;10.70;69.80;;;;;;5863829;23;20287;-69
2021/01/22 04:28:25;;;;;;;4.63;1.50;;;;;;;;;;5693870;23;20245;-70
2021/01/22 04:51:37;;;;;;;15.03;1.90;;;10.80;71.10;;;;;;5719894;23;20434;-71
2021/01/22 04:56:47;;;;;;;6.87;1.20;;;10.60;72.10;;;;;;5606323;23;20238;-70
2021/01/22 05:12:11;;;;;;;17.63;3.27;;;10.70;71.40;;;;;;5680949;23;20364;-69
2021/01/22 05:14:37;;;;;;;3.70;1.23;;;10.70;70.90;;;;;;5839855;23;20228;-71
2021/01/22 05:17:04;;;;;;;3.27;1.33;;;10.70;71.00;;;;;;5814415;23;20280;-66
2021/01/22 05:19:31;;;;;;;2.87;1.10;;;10.60;72.10;;;;;;4963947;28;20635;-67
2021/01/22 05:21:57;;;;;;;6.33;1.53;;;10.70;71.10;;;;;;5392482;23;20237;-67
2021/01/22 05:24:25;;;;;;;3.97;0.93;;;10.70;70.90;;;;;;5101828;23;20324;-67
2021/01/22 05:27:10;;;;;;;5.23;1.47;;;10.80;70.70;;;;;;4956705;28;20193;-68
2021/01/22 05:29:37;;;;;;;4.60;1.53;;;10.80;70.10;;;;;;4967496;23;20263;-67
2021/01/22 05:32:24;;;;;;;2.87;0.97;;;10.90;69.40;;;;;;4959523;28;20238;-67
2021/01/22 05:34:50;;;;;;;5.93;1.87;;;;;;;;;;5021068;23;20695;-67
2021/01/22 05:37:16;;;;;;;3.83;1.23;;;;;;;;;;4963508;23;20226;-67
2021/01/22 05:39:42;;;;;;;3.57;1.27;;;;;;;;;;5062725;23;20244;-67
2021/01/22 05:42:08;;;;;;;7.50;1.57;;;10.80;69.90;;;;;;5305007;23;20293;-67
2021/01/22 05:47:11;;;;;;;3.63;1.27;;;10.80;70.40;;;;;;5015039;23;20318;-68
2021/01/22 05:54:46;;;;;;;3.47;1.17;;;10.80;70.20;;;;;;4923821;29;20222;-69
2021/01/22 05:57:11;;;;;;;4.47;1.40;;;10.80;71.20;;;;;;4923607;29;20186;-69
2021/01/22 05:59:37;;;;;;;3.77;1.47;;;10.70;72.20;;;;;;4972095;23;20281;-68
2021/01/22 06:02:29;;;;;;;5.00;1.33;;;10.70;72.20;;;;;;5339840;23;20672;-68
2021/01/22 06:05:15;;;;;;;3.57;1.07;;;10.50;74.70;;;;;;4997586;23;20292;-69
2021/01/22 06:07:43;;;;;;;3.67;1.17;;;10.40;75.00;;;;;;5175240;23;20403;-68
2021/01/22 06:10:22;;;;;;;8.03;1.87;;;10.40;75.50;;;;;;5386642;23;20240;-68
2021/01/22 06:12:54;;;;;;;3.40;1.43;;;10.30;76.00;;;;;;5087361;23;20225;-68
2021/01/22 06:15:22;;;;;;;3.93;1.60;;;10.10;78.60;;;;;;5154473;23;20600;-68
2021/01/22 06:17:53;;;;;;;3.87;1.13;;;10.10;80.00;;;;;;4977286;23;20238;-69
2021/01/22 06:25:39;;;;;;;3.20;1.10;;;9.80;86.30;;;;;;5792151;23;20887;-68
2021/01/22 06:28:06;;;;;;;4.17;1.20;;;9.70;88.80;;;;;;5243732;23;20259;-68
2021/01/22 06:33:07;;;;;;;3.27;1.17;;;8.90;80.80;;;;;;5418220;23;20236;-68
2021/01/22 06:35:35;;;;;;;3.40;1.03;;;7.90;82.40;;;;;;4957856;28;20197;-68
2021/01/22 06:38:02;;;;;;;2.37;0.80;;;7.60;86.00;;;;;;5209578;23;20313;-69
2021/01/22 06:40:28;;;;;;;2.80;0.87;;;7.30;90.30;;;;;;4939810;28;20538;-69
2021/01/22 06:45:30;;;;;;;2.67;0.83;;;7.10;90.10;;;;;;5333897;23;20251;-69
2021/01/22 06:48:03;;;;;;;1.73;0.67;;;6.90;91.30;;;;;;5310966;23;20242;-69
2021/01/22 06:50:30;;;;;;;2.47;0.87;;;6.70;91.00;;;;;;5033519;23;20238;-69
2021/01/22 06:53:13;;;;;;;2.27;0.80;;;6.50;90.70;;;;;;5561095;23;20678;-69
2021/01/22 06:58:31;;;;;;;2.90;0.90;;;6.40;91.70;;;;;;5674558;23;20288;-68
2021/01/22 07:01:02;;;;;;;3.23;1.03;;;6.30;91.60;;;;;;5045867;23;20769;-68
2021/01/22 07:06:27;;;;;;;2.17;0.80;;;6.20;91.30;;;;;;5039495;23;20248;-68
2021/01/22 07:08:54;;;;;;;2.83;0.87;;;6.30;90.40;;;;;;5289322;23;20234;-68
2021/01/22 07:11:21;;;;;;;3.73;1.10;;;6.00;89.10;;;;;;5135967;23;20686;-69
2021/01/22 07:13:47;;;;;;;2.93;0.87;;;5.90;90.20;;;;;;4952398;29;20277;-69
2021/01/22 07:16:19;;;;;;;20.37;2.40;;;5.90;88.80;;;;;;5143226;23;20215;-68
2021/01/22 07:18:49;;;;;;;1.90;0.70;;;5.90;89.30;;;;;;4964581;28;20293;-68
2021/01/22 07:21:44;;;;;;;2.50;0.87;;;5.90;86.10;;;;;;5587179;23;20264;-69
2021/01/22 07:26:41;;;;;;;2.83;0.93;;;5.80;89.30;;;;;;5239150;23;20327;-69
2021/01/22 07:29:25;;;;;;;2.50;0.90;;;5.80;88.80;;;;;;5219170;23;20324;-69
2021/01/22 07:31:52;;;;;;;1.50;0.60;;;5.70;90.70;;;;;;5034577;23;20237;-68
2021/01/22 07:34:37;;;;;;;1.93;0.70;;;5.70;90.80;;;;;;5117270;23;20782;-69
2021/01/22 07:39:39;;;;;;;2.90;0.93;;;5.60;92.50;;;;;;5288461;23;20324;-68
2021/01/22 07:42:18;;;;;;;16.30;1.67;;;5.50;91.70;;;;;;5819820;23;20264;-68
2021/01/22 07:44:47;;;;;;;2.03;0.80;;;5.50;92.70;;;;;;5543847;23;20257;-68
2021/01/22 07:47:33;;;;;;;3.20;1.03;;;5.40;92.80;;;;;;5094474;23;20584;-68
2021/01/22 07:50:00;;;;;;;3.67;1.33;;;5.40;93.60;;;;;;4953811;28;20182;-71
2021/01/22 07:52:27;;;;;;;5.07;1.47;;;5.60;94.10;;;;;;5198882;23;20311;-69
2021/01/22 07:54:53;;;;;;;3.43;1.17;;;5.70;94.00;;;;;;5090196;23;20269;-69
2021/01/22 07:57:21;;;;;;;3.47;1.13;;;5.70;93.40;;;;;;4980387;23;20237;-68
2021/01/22 07:59:48;;;;;;;3.00;1.10;;;;;;;;;;4937993;28;20560;-69
2021/01/22 08:02:21;;;;;;;3.33;1.00;;;5.80;92.50;;;;;;5422150;23;20238;-68
2021/01/22 08:05:01;;;;;;;2.93;1.00;;;5.80;93.00;;;;;;5595817;23;20235;-69
2021/01/22 08:07:41;;;;;;;3.20;1.03;;;5.80;92.20;;;;;;5573372;23;20265;-68
2021/01/22 08:25:41;;;;;;;4.83;1.80;;;6.20;92.00;;;;;;5745529;23;20235;-68
2021/01/22 08:28:08;;;;;;;2.60;1.00;;;6.30;92.20;;;;;;5700664;23;20300;-69
2021/01/22 08:30:35;;;;;;;4.67;1.63;;;6.20;92.00;;;;;;5214768;23;20267;-67
2021/01/22 08:35:38;;;;;;;5.13;1.47;;;6.30;91.80;;;;;;5886388;23;20230;-68
2021/01/22 08:38:04;;;;;;;4.13;1.30;;;6.20;92.10;;;;;;5073495;23;20254;-68
2021/01/22 08:43:09;;;;;;;4.03;1.40;;;6.30;92.40;;;;;;5053528;23;20227;-68
2021/01/22 08:45:35;;;;;;;3.43;1.10;;;6.30;92.60;;;;;;5403357;23;20231;-68
2021/01/22 08:48:02;;;;;;;3.23;1.27;;;;;;;;;;4978506;23;20237;-68
2021/01/22 08:50:28;;;;;;;3.37;1.13;;;;;;;;;;4979478;28;20207;-68
2021/01/22 08:53:10;;;;;;;25.33;2.90;;;6.40;93.10;;;;;;5850443;23;20253;-69
2021/01/22 08:55:37;;;;;;;4.43;1.53;;;6.40;93.00;;;;;;5354840;23;20598;-68
2021/01/22 08:58:09;;;;;;;4.00;1.13;;;6.40;92.30;;;;;;5367951;23;20611;-68
2021/01/22 09:00:35;;;;;;;22.40;2.70;;;6.40;92.30;;;;;;5836113;23;20172;-68
2021/01/22 09:03:01;;;;;;;12.37;1.57;;;6.50;92.00;;;;;;5573727;23;20251;-68
2021/01/22 09:05:27;;;;;;;3.37;1.10;;;6.40;91.70;;;;;;4957845;28;20571;-67
2021/01/22 09:08:09;;;;;;;9.80;1.37;;;6.50;91.70;;;;;;5894135;23;20175;-68
2021/01/22 09:10:41;;;;;;;4.33;0.93;;;;;;;;;;5436459;23;20602;-68
2021/01/22 09:13:14;;;;;;;3.53;1.27;;;6.40;91.70;;;;;;4960021;28;20218;-68
2021/01/22 09:15:42;;;;;;;3.47;1.30;;;6.40;91.70;;;;;;5165418;23;20273;-68
2021/01/22 09:18:22;;;;;;;3.40;1.03;;;6.30;91.80;;;;;;5461280;23;20775;-68
2021/01/22 09:23:18;;;;;;;7.87;1.27;;;;;;;;;;6125714;23;20553;-67
2021/01/22 09:25:43;;;;;;;2.57;1.10;;;6.50;92.30;;;;;;5115780;23;20248;-68
2021/01/22 09:28:09;;;;;;;1.93;0.90;;;6.40;92.50;;;;;;5161788;23;20288;-68
2021/01/22 09:30:35;;;;;;;3.20;1.33;;;;;;;;;;4941237;28;20178;-67
2021/01/22 09:35:37;;;;;;;2.50;1.00;;;;;;;;;;5454959;23;20722;-68
2021/01/22 09:38:03;;;;;;;3.03;1.10;;;;;;;;;;4989889;23;20292;-68
2021/01/22 09:40:29;;;;;;;3.80;1.20;;;;;;;;;;5281569;23;20646;-68
2021/01/22 09:42:55;;;;;;;3.20;1.17;;;6.40;84.90;;;;;;4966415;28;20241;-68
2021/01/22 09:45:21;;;;;;;2.33;0.90;;;;;;;;;;5022713;23;20240;-68
2021/01/22 09:47:47;;;;;;;3.07;1.13;;;6.40;88.00;;;;;;5108638;23;20229;-69
2021/01/22 09:50:14;;;;;;;2.40;0.93;;;6.40;88.70;;;;;;5617424;23;20305;-68
2021/01/22 09:52:41;;;;;;;2.90;1.10;;;;;;;;;;4963801;28;20218;-68
2021/01/22 09:55:18;;;;;;;3.00;1.00;;;6.40;88.20;;;;;;4994456;23;20244;-68
2021/01/22 09:57:44;;;;;;;2.37;0.93;;;6.40;88.70;;;;;;5024490;23;20307;-68
2021/01/22 10:00:14;;;;;;;3.00;1.00;;;6.40;85.90;;;;;;4999460;23;20252;-68
2021/01/22 10:02:40;;;;;;;4.00;1.33;;;6.40;86.60;;;;;;4961120;28;20696;-68
2021/01/22 10:05:06;;;;;;;1.97;0.87;;;6.50;87.90;;;;;;5256226;23;20285;-68
2021/01/22 10:17:55;;;;;;;1.83;0.60;;;6.40;77.70;;;;;;5244049;23;20236;-67
2021/01/22 10:20:20;;;;;;;2.90;0.90;;;6.30;77.70;;;;;;4960984;28;20195;-68
2021/01/22 10:22:46;;;;;;;3.83;1.00;;;6.20;81.40;;;;;;5301655;23;20250;-68
2021/01/22 10:25:12;;;;;;;3.20;1.10;;;;;;;;;;5378903;23;20249;-68
2021/01/22 10:27:38;;;;;;;2.63;0.90;;;;;;;;;;5195554;23;20241;-68
2021/01/22 10:30:05;;;;;;;2.53;1.10;;;6.20;86.00;;;;;;5291440;23;20705;-68
2021/01/22 10:32:30;;;;;;;3.27;1.23;;;6.20;88.50;;;;;;4961323;28;20274;-68
2021/01/22 10:34:56;;;;;;;25.10;3.03;;;;;;;;;;5794225;23;20212;-64
2021/01/22 10:37:22;;;;;;;3.07;1.10;;;6.30;88.00;;;;;;4961021;28;20224;-64
2021/01/22 10:39:48;;;;;;;2.67;0.97;;;6.20;87.20;;;;;;4965734;28;20225;-64
2021/01/22 10:42:13;;;;;;;1.70;0.70;;;6.20;87.30;;;;;;4963698;28;20363;-64
2021/01/22 10:44:39;;;;;;;2.50;0.90;;;6.30;86.70;;;;;;4965180;28;20185;-67
2021/01/22 10:47:05;;;;;;;4.23;1.30;;;6.30;86.80;;;;;;5584563;23;20247;-67
2021/01/22 10:49:30;;;;;;;2.03;0.80;;;6.30;87.80;;;;;;4948708;28;20189;-68
2021/01/22 10:51:56;;;;;;;2.50;0.83;;;6.20;85.70;;;;;;5102780;23;20233;-68
2021/01/22 10:54:22;;;;;;;3.20;0.87;;;6.20;85.70;;;;;;4979952;23;20237;-68
2021/01/22 10:59:15;;;;;;;2.07;0.80;;;;;;;;;;5072183;23;20704;-68
2021/01/22 11:01:41;;;;;;;2.93;1.03;;;6.30;83.60;;;;;;4959388;28;20217;-67
2021/01/22 11:04:07;;;;;;;2.80;0.93;;;6.30;83.80;;;;;;5514186;23;20250;-67
2021/01/22 11:06:32;;;;;;;2.93;1.20;;;6.20;82.60;;;;;;4918987;28;20226;-67
2021/01/22 11:08:58;;;;;;;2.30;1.07;;;6.10;82.70;;;;;;4921109;28;20207;-67
2021/01/22 11:11:24;;;;;;;1.83;0.83;;;;;;;;;;5163447;23;20251;-67
2021/01/22 11:13:49;;;;;;;2.20;1.00;;;6.10;84.60;;;;;;4938594;28;20197;-67
2021/01/22 11:18:51;;;;;;;30.80;3.53;;;;;;;;;;5956960;23;22058;-68
2021/01/22 11:21:17;;;;;;;4.93;1.83;;;6.30;87.80;;;;;;4943724;28;21379;-68
2021/01/22 11:23:43;;;;;;;4.00;1.67;;;;;;;;;;4944896;28;20229;-68
2021/01/22 11:26:09;;;;;;;1.40;0.77;;;;;;;;;;5265687;23;20257;-68
2021/01/22 11:28:34;;;;;;;2.23;0.97;;;6.30;87.10;;;;;;5211132;23;20245;-68
2021/01/22 11:31:02;;;;;;;3.30;1.53;;;;;;;;;;4921190;28;20246;-68
2021/01/22 11:33:28;;;;;;;4.13;1.47;;;6.20;85.70;;;;;;5054868;23;20594;-67
2021/01/22 11:35:53;;;;;;;2.70;1.13;;;6.30;85.80;;;;;;4985800;23;20511;-67
2021/01/22 11:38:19;;;;;;;3.27;1.30;;;6.30;86.40;;;;;;4972998;23;20336;-68
2021/01/22 11:40:44;;;;;;;2.23;0.90;;;6.30;86.50;;;;;;4925011;28;20198;-68
2021/01/22 11:43:10;;;;;;;2.10;0.83;;;6.20;87.90;;;;;;5053341;23;20241;-68
2021/01/22 11:45:36;;;;;;;2.23;0.93;;;6.20;87.70;;;;;;5091840;23;20308;-68
2021/01/22 11:48:01;;;;;;;3.93;1.43;;;6.10;83.90;;;;;;4934015;28;20198;-68
2021/01/22 11:50:27;;;;;;;2.53;1.10;;;;;;;;;;4916639;28;21129;-68
2021/01/22 11:52:53;;;;;;;2.40;1.13;;;;;;;;;;5115353;23;20771;-68
2021/01/22 11:55:19;;;;;;;4.90;1.77;;;6.20;87.90;;;;;;4946199;23;20247;-67
2021/01/22 11:57:45;;;;;;;1.57;0.97;;;;;;;;;;4962339;23;20288;-68
2021/01/22 12:00:11;;;;;;;1.97;0.97;;;6.30;88.30;;;;;;4926442;28;20736;-68
2021/01/22 12:02:36;;;;;;;4.77;1.33;;;6.30;88.40;;;;;;5030044;23;20293;-67
2021/01/22 12:05:02;;;;;;;2.47;1.20;;;;;;;;;;5215995;23;20252;-69
2021/01/22 12:07:28;;;;;;;2.77;1.20;;;6.30;87.60;;;;;;4950388;23;20541;-68
2021/01/22 12:09:54;;;;;;;2.30;1.10;;;;;;;;;;4952916;23;20375;-68
2021/01/22 12:12:20;;;;;;;1.60;0.87;;;6.30;87.40;;;;;;4922629;28;20336;-68
2021/01/22 12:14:46;;;;;;;3.90;1.27;;;;;;;;;;5144185;23;20245;-68
2021/01/22 12:17:12;;;;;;;2.67;1.17;;;;;;;;;;4921381;28;20202;-68
2021/01/22 12:19:38;;;;;;;3.30;1.40;;;6.50;89.50;;;;;;4937869;28;20668;-68
2021/01/22 12:22:04;;;;;;;2.63;1.20;;;;;;;;;;4918044;28;20200;-68
2021/01/22 12:24:30;;;;;;;5.30;1.67;;;;;;;;;;4957905;23;20715;-68
2021/01/22 12:26:56;;;;;;;3.10;1.37;;;6.50;87.90;;;;;;4954227;23;20331;-68
2021/01/22 12:29:21;;;;;;;2.50;0.97;;;6.50;88.40;;;;;;5048072;23;20989;-68
2021/01/22 12:31:47;;;;;;;2.60;1.17;;;6.60;88.20;;;;;;4948432;28;20207;-67
2021/01/22 12:34:12;;;;;;;3.47;1.27;;;6.70;86.70;;;;;;4951153;23;20246;-67
2021/01/22 12:36:39;;;;;;;2.93;1.23;;;;;;;;;;4925068;28;20197;-68
2021/01/22 12:39:05;;;;;;;2.90;1.17;;;6.70;86.10;;;;;;5233388;23;20244;-67
2021/01/22 12:41:33;;;;;;;2.13;1.20;;;6.70;85.70;;;;;;4922281;28;20561;-67
2021/01/22 12:43:59;;;;;;;1.23;0.67;;;6.80;85.30;;;;;;4926610;29;20284;-67
2021/01/22 12:46:24;;;;;;;2.33;1.20;;;6.70;85.90;;;;;;4938362;23;20246;-67
2021/01/22 12:48:50;;;;;;;4.97;1.40;;;6.60;84.50;;;;;;4955486;23;20260;-68
2021/01/22 12:51:16;;;;;;;2.13;1.10;;;;;;;;;;4980511;23;20608;-65
2021/01/22 12:53:42;;;;;;;3.30;1.37;;;6.60;83.20;;;;;;4970605;23;20246;-65
2021/01/22 12:56:07;;;;;;;4.17;1.50;;;6.70;81.80;;;;;;4914334;23;760462;-66
2021/01/22 12:58:33;;;;;;;4.40;1.57;;;;;;;;;;4945059;28;20196;-66
2021/01/22 13:00:59;;;;;;;3.07;1.20;;;6.70;82.10;;;;;;4939628;28;20191;-66
2021/01/22 13:03:24;;;;;;;2.50;1.07;;;6.50;81.20;;;;;;4962516;23;20777;-66
2021/01/22 13:05:50;;;;;;;3.03;1.23;;;6.70;82.10;;;;;;4977188;23;20229;-66
2021/01/22 13:08:16;;;;;;;3.03;1.43;;;;;;;;;;4960046;28;20833;-65
2021/01/22 13:10:42;;;;;;;3.63;1.37;;;;;;;;;;4962272;23;20236;-67
2021/01/22 13:13:08;;;;;;;2.90;1.10;;;6.50;83.60;;;;;;4953707;28;20543;-71
2021/01/22 13:15:34;;;;;;;3.43;1.30;;;6.50;83.60;;;;;;4965042;28;20846;-66
2021/01/22 13:17:59;;;;;;;2.60;1.10;;;6.60;84.60;;;;;;4967540;23;20239;-67
2021/01/22 13:20:25;;;;;;;2.67;1.03;;;6.60;83.30;;;;;;4957326;28;20358;-67
2021/01/22 13:22:51;;;;;;;3.00;1.23;;;6.60;81.60;;;;;;4960520;23;22402;-67
2021/01/22 13:25:16;;;;;;;4.70;1.70;;;6.50;83.40;;;;;;4949669;29;20196;-65
2021/01/22 13:27:42;;;;;;;2.27;1.07;;;6.70;82.90;;;;;;4948078;28;20337;-67
2021/01/22 13:30:10;;;;;;;2.87;1.23;;;6.80;80.90;;;;;;4966243;23;20588;-64
2021/01/22 13:32:36;;;;;;;4.23;1.60;;;6.80;80.10;;;;;;4961578;28;20189;-69
2021/01/22 13:35:03;;;;;;;5.17;1.70;;;6.80;79.30;;;;;;4983723;23;20241;-64
2021/01/22 13:37:28;;;;;;;2.40;1.23;;;6.80;79.60;;;;;;4963079;28;20241;-66
2021/01/22 13:39:54;;;;;;;2.80;1.00;;;6.80;78.70;;;;;;4962828;23;20265;-65
2021/01/22 13:42:20;;;;;;;3.00;1.13;;;6.70;78.90;;;;;;5024815;23;20247;-69
2021/01/22 13:44:46;;;;;;;2.60;0.97;;;;;;;;;;5075357;23;20232;-67
2021/01/22 13:47:12;;;;;;;3.43;1.57;;;;;;;;;;4966452;23;20581;-66
2021/01/22 13:49:38;;;;;;;2.73;1.10;;;;;;;;;;4967022;23;20286;-66
2021/01/22 13:52:04;;;;;;;4.63;1.60;;;6.60;77.90;;;;;;4952625;28;20202;-67
2021/01/22 13:54:29;;;;;;;3.83;1.40;;;6.50;78.60;;;;;;4965616;23;20268;-66
2021/01/22 13:56:55;;;;;;;4.70;1.37;;;6.10;79.00;;;;;;4953033;28;20610;-66
2021/01/22 13:59:21;;;;;;;3.37;1.07;;;6.00;79.50;;;;;;4996541;23;20302;-66
2021/01/22 14:01:49;;;;;;;2.93;1.20;;;;;;;;;;4973486;23;20270;-66
2021/01/22 14:04:16;;;;;;;3.40;1.30;;;6.00;82.10;;;;;;4966020;28;20417;-67
2021/01/22 14:06:42;;;;;;;3.23;1.27;;;6.10;82.80;;;;;;4974629;23;20319;-66
2021/01/22 14:09:07;;;;;;;4.37;1.33;;;6.10;83.70;;;;;;4970416;23;20654;-66
2021/01/22 14:11:33;;;;;;;3.10;1.10;;;6.10;84.00;;;;;;4967303;28;20197;-66
2021/01/22 14:13:59;;;;;;;2.10;0.90;;;6.10;84.30;;;;;;4971761;23;20387;-66
2021/01/22 14:16:25;;;;;;;2.73;1.03;;;6.20;83.40;;;;;;4973471;23;20262;-66
2021/01/22 14:18:51;;;;;;;3.57;1.57;;;;;;;;;;4962108;23;20296;-66
2021/01/22 14:21:17;;;;;;;2.77;0.90;;;6.30;83.90;;;;;;4965558;28;20254;-66
2021/01/22 14:23:42;;;;;;;3.53;1.47;;;6.40;84.00;;;;;;4969974;23;20231;-66
2021/01/22 14:26:08;;;;;;;3.47;1.40;;;6.50;83.40;;;;;;4961443;23;20710;-66
2021/01/22 14:28:33;;;;;;;5.47;2.10;;;6.50;83.60;;;;;;4955005;28;20194;-66
2021/01/22 14:30:59;;;;;;;5.07;1.73;;;;;;;;;;4959655;23;20237;-66
2021/01/22 14:33:25;;;;;;;2.90;1.57;;;;;;;;;;4973041;23;20240;-66
2021/01/22 14:35:51;;;;;;;5.43;2.10;;;;;;;;;;5002931;23;20229;-67
2021/01/22 14:38:17;;;;;;;3.83;1.80;;;6.60;83.70;;;;;;4962791;28;20194;-66
2021/01/22 14:40:43;;;;;;;2.83;1.27;;;;;;;;;;4979419;23;20323;-66
2021/01/22 14:43:09;;;;;;;2.83;1.30;;;6.80;79.90;;;;;;4969515;28;20213;-66
2021/01/22 14:45:35;;;;;;;4.63;1.50;;;6.90;82.30;;;;;;4972151;23;20241;-66
2021/01/22 14:48:01;;;;;;;3.20;1.50;;;;;;;;;;4968943;28;20604;-66
2021/01/22 14:50:26;;;;;;;20.87;2.57;;;7.10;78.30;;;;;;5069359;23;20247;-67
2021/01/22 14:52:52;;;;;;;3.27;1.93;;;;;;;;;;4969633;23;20287;-66
2021/01/22 14:55:18;;;;;;;3.73;1.53;;;7.00;76.40;;;;;;4965534;28;20225;-66
2021/01/22 14:57:44;;;;;;;4.83;1.73;;;;;;;;;;4965846;23;20634;-66
2021/01/22 15:00:10;;;;;;;3.10;1.50;;;7.10;75.00;;;;;;4967907;23;20685;-66
2021/01/22 15:02:36;;;;;;;2.93;1.53;;;;;;;;;;4994786;23;20575;-66
2021/01/22 15:05:02;;;;;;;4.13;1.67;;;6.90;76.10;;;;;;4966186;28;20260;-66
2021/01/22 15:07:28;;;;;;;4.30;1.70;;;;;;;;;;5213565;23;20675;-66
2021/01/22 15:09:54;;;;;;;4.83;2.13;;;6.70;77.80;;;;;;4972707;28;20208;-66
2021/01/22 15:12:20;;;;;;;3.43;1.90;;;6.60;78.60;;;;;;4969986;28;20169;-66
2021/01/22 15:14:45;;;;;;;5.67;2.47;;;6.50;79.10;;;;;;5010024;23;20267;-66
2021/01/22 15:17:11;;;;;;;5.07;2.57;;;6.50;78.80;;;;;;5035438;23;20240;-66
2021/01/22 15:19:37;;;;;;;4.23;2.20;;;;;;;;;;4966020;23;22732;-66
2021/01/22 15:22:03;;;;;;;7.03;3.27;;;6.30;79.50;;;;;;4978470;23;20249;-62
2021/01/22 15:24:29;;;;;;;6.03;3.13;;;;;;;;;;4946204;29;20196;-63
2021/01/22 15:26:54;;;;;;;8.00;3.40;;;6.10;81.50;;;;;;4942678;28;20587;-63
2021/01/22 15:29:20;;;;;;;3.83;2.30;;;;;;;;;;4938392;28;20197;-62
2021/01/22 15:31:46;;;;;;;4.43;2.67;;;6.00;84.00;;;;;;4946430;28;20646;-63
2021/01/22 15:34:12;;;;;;;5.90;2.13;;;6.10;84.30;;;;;;4941054;28;20196;-63
2021/01/22 15:36:39;;;;;;;5.37;2.33;;;6.10;83.90;;;;;;4944331;28;20272;-64
2021/01/22 15:39:05;;;;;;;5.90;2.03;;;6.10;85.10;;;;;;4949610;28;20186;-64
2021/01/22 15:41:31;;;;;;;3.80;1.70;;;5.90;84.10;;;;;;4952497;28;20620;-65
2021/01/22 15:43:57;;;;;;;6.47;2.13;;;5.80;84.10;;;;;;4951314;29;20288;-64
2021/01/22 15:46:22;;;;;;;4.20;1.70;;;;;;;;;;4948915;28;20293;-63
2021/01/22 15:48:48;;;;;;;5.00;1.83;;;5.40;88.30;;;;;;4950792;29;20694;-64
2021/01/22 15:51:14;;;;;;;4.13;1.90;;;5.50;89.50;;;;;;4949015;28;20193;-65
2021/01/22 15:53:40;;;;;;;4.67;2.00;;;5.40;89.00;;;;;;4963150;28;20652;-63
2021/01/22 15:56:05;;;;;;;4.20;2.17;;;5.40;90.10;;;;;;4940520;29;20282;-63
2021/01/22 15:58:31;;;;;;;3.63;1.83;;;5.50;90.50;;;;;;4950668;29;20202;-63
2021/01/22 16:00:57;;;;;;;4.33;1.73;;;5.60;90.40;;;;;;4951752;29;20194;-64
2021/01/22 16:03:22;;;;;;;3.23;1.57;;;5.50;90.60;;;;;;4965313;28;20210;-64
2021/01/22 16:05:48;;;;;;;4.20;2.10;;;;;;;;;;4944732;28;20220;-64
2021/01/22 16:08:14;;;;;;;4.10;2.00;;;5.50;90.90;;;;;;4949423;29;20190;-64
2021/01/22 16:10:40;;;;;;;3.20;1.80;;;;;;;;;;4952037;28;20190;-64
2021/01/22 16:13:06;;;;;;;3.93;1.47;;;;;;;;;;4952508;29;20257;-64
2021/01/22 16:15:32;;;;;;;4.60;2.17;;;5.40;90.00;;;;;;4951122;29;20202;-64
2021/01/22 16:17:58;;;;;;;3.87;2.10;;;;;;;;;;4953458;28;20179;-64
2021/01/22 16:20:23;;;;;;;7.00;2.17;;;5.40;89.90;;;;;;4949552;29;20604;-64
2021/01/22 16:22:49;;;;;;;4.07;2.00;;;;;;;;;;4945829;29;20202;-64
2021/01/22 16:25:15;;;;;;;3.30;1.90;;;5.20;90.40;;;;;;4962962;28;20665;-64
2021/01/22 16:27:41;;;;;;;3.33;1.83;;;;;;;;;;4945546;28;20199;-63
2021/01/22 16:30:07;;;;;;;4.80;2.33;;;5.30;90.80;;;;;;4940146;28;20203;-62
2021/01/22 16:32:33;;;;;;;3.93;2.07;;;5.20;90.70;;;;;;4941510;28;20201;-64
2021/01/22 16:35:00;;;;;;;5.47;2.57;;;5.20;90.80;;;;;;4949233;28;20204;-64
2021/01/22 16:37:26;;;;;;;5.13;2.83;;;;;;;;;;4948719;28;20276;-67
2021/01/22 16:39:57;;;;;;;4.93;2.57;;;5.10;91.20;;;;;;4945744;28;20186;-65
2021/01/22 16:42:24;;;;;;;4.30;2.40;;;5.20;91.60;;;;;;4942807;28;20330;-67
2021/01/22 16:44:49;;;;;;;3.20;2.03;;;5.20;91.60;;;;;;4965610;23;20291;-66
2021/01/22 16:47:15;;;;;;;3.53;2.13;;;5.30;91.60;;;;;;4951045;23;20243;-66
2021/01/22 16:49:41;;;;;;;3.90;2.60;;;5.30;91.20;;;;;;4949260;28;20655;-66
2021/01/22 16:52:06;;;;;;;6.30;2.20;;;5.30;91.20;;;;;;4968387;23;20610;-66
2021/01/22 16:54:32;;;;;;;5.20;2.60;;;5.30;90.80;;;;;;4939270;23;20515;-65
2021/01/22 16:56:58;;;;;;;4.53;2.37;;;5.30;90.20;;;;;;4927710;29;20214;-65
2021/01/22 16:59:24;;;;;;;5.33;2.97;;;;;;;;;;4967072;23;20233;-65
2021/01/22 17:01:49;;;;;;;4.57;2.50;;;5.30;89.70;;;;;;4951373;28;20277;-67
2021/01/22 17:04:15;;;;;;;5.13;2.90;;;5.20;90.00;;;;;;4956557;23;20726;-67
2021/01/22 17:06:40;;;;;;;4.53;3.17;;;5.20;90.40;;;;;;4939800;28;20194;-66
2021/01/22 17:09:06;;;;;;;5.63;3.13;;;5.30;90.10;;;;;;4942692;28;20190;-66
2021/01/22 17:11:32;;;;;;;6.27;3.30;;;;;;;;;;4965594;23;20357;-66
2021/01/22 17:13:58;;;;;;;3.27;2.17;;;;;;;;;;4963767;23;20244;-66
2021/01/22 17:16:24;;;;;;;5.53;3.03;;;5.10;90.10;;;;;;4969288;23;20233;-66
2021/01/22 17:18:50;;;;;;;6.07;3.30;;;;;;;;;;4972979;23;20233;-66
2021/01/22 17:21:16;;;;;;;4.87;3.23;;;;;;;;;;4965751;23;20237;-67
2021/01/22 17:23:41;;;;;;;6.20;3.50;;;4.90;91.10;;;;;;4952658;28;20295;-66
2021/01/22 17:26:08;;;;;;;5.03;2.87;;;4.90;91.10;;;;;;4951362;23;20241;-66
2021/01/22 17:28:34;;;;;;;5.13;2.87;;;4.90;91.40;;;;;;4945332;28;20280;-65
2021/01/22 17:30:59;;;;;;;5.97;3.30;;;4.80;91.60;;;;;;4947302;28;20262;-66
2021/01/22 17:33:25;;;;;;;7.53;4.10;;;4.90;91.60;;;;;;4966791;23;20245;-67
2021/01/22 17:35:51;;;;;;;7.53;3.57;;;;;;;;;;4973190;23;20240;-67
2021/01/22 17:38:16;;;;;;;6.63;3.60;;;4.90;91.10;;;;;;4956987;28;20189;-67
2021/01/22 17:40:43;;;;;;;5.67;3.93;;;5.00;91.10;;;;;;4967632;23;20576;-66
2021/01/22 17:43:09;;;;;;;6.37;3.23;;;5.00;91.10;;;;;;4938016;23;20244;-66
2021/01/22 17:45:34;;;;;;;6.40;3.43;;;5.00;90.50;;;;;;4958534;23;20244;-66
2021/01/22 17:48:00;;;;;;;7.63;3.43;;;;;;;;;;4966239;23;20232;-67
2021/01/22 17:50:27;;;;;;;6.77;4.13;;;4.80;90.30;;;;;;4965159;28;20193;-67
2021/01/22 17:52:56;;;;;;;8.47;4.10;;;4.70;91.00;;;;;;4967730;28;20189;-66
2021/01/22 17:55:22;;;;;;;7.30;2.90;;;4.60;91.00;;;;;;4975592;23;20229;-66
2021/01/22 17:57:47;;;;;;;5.77;3.20;;;4.50;91.70;;;;;;4971442;28;20528;-66
2021/01/22 18:00:14;;;;;;;5.57;2.97;;;4.50;92.10;;;;;;4968625;23;20237;-66
2021/01/22 18:02:45;;;;;;;6.57;3.30;;;4.40;92.30;;;;;;4965759;28;20689;-66
2021/01/22 18:05:12;;;;;;;5.13;3.00;;;4.50;92.60;;;;;;4965389;23;20233;-66
2021/01/22 18:07:38;;;;;;;9.27;4.70;;;;;;;;;;4941888;23;20346;-66
2021/01/22 18:10:07;;;;;;;7.70;4.67;;;;;;;;;;4915473;29;20669;-66
2021/01/22 18:12:33;;;;;;;15.70;7.30;;;4.80;92.00;;;;;;4913822;29;20199;-65
2021/01/22 18:14:59;;;;;;;10.77;6.37;;;;;;;;;;4940386;23;20632;-66
2021/01/22 18:17:26;;;;;;;10.10;5.23;;;4.90;91.90;;;;;;4973081;28;20284;-65
2021/01/22 18:19:51;;;;;;;7.63;5.10;;;4.80;91.30;;;;;;4962259;28;20220;-65
2021/01/22 18:22:17;;;;;;;9.20;5.27;;;4.70;91.30;;;;;;4957013;23;20673;-65
2021/01/22 18:24:42;;;;;;;6.87;4.77;;;4.70;92.00;;;;;;4954701;28;20420;-66
2021/01/22 18:27:08;;;;;;;9.20;5.30;;;;;;;;;;4947782;28;20201;-66
2021/01/22 18:29:34;;;;;;;7.23;3.47;;;4.80;91.60;;;;;;4963189;23;20268;-65
2021/01/22 18:32:00;;;;;;;6.93;3.67;;;;;;;;;;4971948;28;20632;-65
2021/01/22 18:34:26;;;;;;;7.63;3.53;;;4.80;91.40;;;;;;4955295;23;20237;-65
2021/01/22 18:36:51;;;;;;;7.07;3.57;;;4.80;91.40;;;;;;4952372;23;20317;-65
2021/01/22 18:39:17;;;;;;;7.17;3.40;;;4.80;91.60;;;;;;4946010;29;20369;-66
2021/01/22 18:41:43;;;;;;;6.83;4.20;;;4.70;92.10;;;;;;4942855;23;20428;-65
2021/01/22 18:44:09;;;;;;;7.40;4.97;;;;;;;;;;4973446;23;20324;-65
2021/01/22 18:46:35;;;;;;;8.13;4.63;;;4.60;92.60;;;;;;4965220;28;20252;-66
2021/01/22 18:49:01;;;;;;;7.03;4.50;;;;;;;;;;4980004;23;20241;-65
2021/01/22 18:51:26;;;;;;;8.37;4.57;;;4.70;92.70;;;;;;4980554;23;20315;-66
2021/01/22 18:53:52;;;;;;;9.40;4.63;;;4.70;92.30;;;;;;4965502;23;20237;-65
2021/01/22 18:56:19;;;;;;;11.60;4.90;;;4.80;91.90;;;;;;4965921;23;20226;-65
2021/01/22 18:58:44;;;;;;;9.97;5.43;;;4.70;91.70;;;;;;4979204;23;20627;-65